sensor_id;sensor_type;location;lat;lon;timestamp;P1;durP1;ratioP1;P2;durP2;ratioP2
35330;SDS011;21441;52.190;20.910;2022-07-06T00:02:10;8.85;;;7.45;;
35330;SDS011;21441;52.190;20.910;2022-07-06T00:04:37;10.18;;;8.23;;
35330;SDS011;21441;52.190;20.910;2022-07-06T00:07:03;15.02;;;13.52;;
35330;SDS011;21441;52.190;20.910;2022-07-06T00:09:30;11.98;;;10.68;;
35330;SDS011;21441;52.190;20.910;2022-07-06T00:11:57;9.73;;;8.55;;
35330;SDS011;21441;52.190;20.910;2022-07-06T00:14:25;8.07;;;6.90;;
35330;SDS011;21441;52.190;20.910;2022-07-06T00:16:52;8.05;;;6.50;;
35330;SDS011;21441;52.190;20.910;2022-07-06T00:19:19;8.05;;;7.35;;
35330;SDS011;21441;52.190;20.910;2022-07-06T00:21:46;8.32;;;7.53;;
35330;SDS011;21441;52.190;20.910;2022-07-06T00:24:13;8.35;;;7.55;;
35330;SDS011;21441;52.190;20.910;2022-07-06T00:26:40;11.50;;;8.15;;
35330;SDS011;21441;52.190;20.910;2022-07-06T00:29:07;8.77;;;7.97;;
35330;SDS011;21441;52.190;20.910;2022-07-06T00:31:35;7.88;;;7.07;;
35330;SDS011;21441;52.190;20.910;2022-07-06T00:34:02;7.68;;;6.95;;
35330;SDS011;21441;52.190;20.910;2022-07-06T00:36:29;7.95;;;7.22;;
35330;SDS011;21441;52.190;20.910;2022-07-06T00:38:55;10.05;;;8.93;;
35330;SDS011;21441;52.190;20.910;2022-07-06T00:41:22;8.38;;;7.60;;
35330;SDS011;21441;52.190;20.910;2022-07-06T00:43:50;9.52;;;8.63;;
35330;SDS011;21441;52.190;20.910;2022-07-06T00:46:18;10.85;;;8.60;;
35330;SDS011;21441;52.190;20.910;2022-07-06T00:48:46;9.32;;;8.30;;
35330;SDS011;21441;52.190;20.910;2022-07-06T00:51:13;10.65;;;7.80;;
35330;SDS011;21441;52.190;20.910;2022-07-06T00:53:41;8.45;;;6.82;;
35330;SDS011;21441;52.190;20.910;2022-07-06T00:56:09;7.88;;;7.18;;
35330;SDS011;21441;52.190;20.910;2022-07-06T00:58:39;7.93;;;7.13;;
35330;SDS011;21441;52.190;20.910;2022-07-06T01:01:06;7.47;;;6.78;;
35330;SDS011;21441;52.190;20.910;2022-07-06T01:03:33;8.18;;;6.97;;
35330;SDS011;21441;52.190;20.910;2022-07-06T01:06:01;7.78;;;6.50;;
35330;SDS011;21441;52.190;20.910;2022-07-06T01:08:28;7.18;;;6.53;;
35330;SDS011;21441;52.190;20.910;2022-07-06T01:10:55;8.68;;;6.50;;
35330;SDS011;21441;52.190;20.910;2022-07-06T01:13:22;6.97;;;6.38;;
35330;SDS011;21441;52.190;20.910;2022-07-06T01:15:49;8.25;;;6.45;;
35330;SDS011;21441;52.190;20.910;2022-07-06T01:18:16;8.23;;;6.20;;
35330;SDS011;21441;52.190;20.910;2022-07-06T01:20:44;7.05;;;6.43;;
35330;SDS011;21441;52.190;20.910;2022-07-06T01:23:11;7.60;;;6.85;;
35330;SDS011;21441;52.190;20.910;2022-07-06T01:25:39;7.55;;;6.85;;
35330;SDS011;21441;52.190;20.910;2022-07-06T01:28:06;7.20;;;6.60;;
35330;SDS011;21441;52.190;20.910;2022-07-06T01:30:33;8.02;;;7.20;;
35330;SDS011;21441;52.190;20.910;2022-07-06T01:33:00;9.50;;;7.03;;
35330;SDS011;21441;52.190;20.910;2022-07-06T01:35:27;9.38;;;6.70;;
35330;SDS011;21441;52.190;20.910;2022-07-06T01:37:59;8.13;;;7.00;;
35330;SDS011;21441;52.190;20.910;2022-07-06T01:40:26;8.70;;;6.78;;
35330;SDS011;21441;52.190;20.910;2022-07-06T01:42:53;9.48;;;7.25;;
35330;SDS011;21441;52.190;20.910;2022-07-06T01:45:20;9.68;;;6.82;;
35330;SDS011;21441;52.190;20.910;2022-07-06T01:47:47;9.05;;;7.75;;
35330;SDS011;21441;52.190;20.910;2022-07-06T01:50:13;9.32;;;7.35;;
35330;SDS011;21441;52.190;20.910;2022-07-06T01:52:40;10.68;;;6.80;;
35330;SDS011;21441;52.190;20.910;2022-07-06T01:55:09;9.70;;;7.47;;
35330;SDS011;21441;52.190;20.910;2022-07-06T01:57:36;10.85;;;6.68;;
35330;SDS011;21441;52.190;20.910;2022-07-06T02:00:04;9.10;;;7.22;;
35330;SDS011;21441;52.190;20.910;2022-07-06T02:02:33;8.82;;;6.35;;
35330;SDS011;21441;52.190;20.910;2022-07-06T02:05:00;9.98;;;7.57;;
35330;SDS011;21441;52.190;20.910;2022-07-06T02:07:27;11.60;;;7.18;;
35330;SDS011;21441;52.190;20.910;2022-07-06T02:09:54;10.32;;;7.68;;
35330;SDS011;21441;52.190;20.910;2022-07-06T02:12:22;12.80;;;7.40;;
35330;SDS011;21441;52.190;20.910;2022-07-06T02:14:49;12.82;;;8.38;;
35330;SDS011;21441;52.190;20.910;2022-07-06T02:17:15;9.43;;;6.85;;
35330;SDS011;21441;52.190;20.910;2022-07-06T02:19:42;12.02;;;8.27;;
35330;SDS011;21441;52.190;20.910;2022-07-06T02:22:10;10.00;;;6.80;;
35330;SDS011;21441;52.190;20.910;2022-07-06T02:24:39;8.15;;;7.03;;
35330;SDS011;21441;52.190;20.910;2022-07-06T02:27:05;8.05;;;6.18;;
35330;SDS011;21441;52.190;20.910;2022-07-06T02:29:34;8.00;;;6.28;;
35330;SDS011;21441;52.190;20.910;2022-07-06T02:32:01;8.65;;;5.95;;
35330;SDS011;21441;52.190;20.910;2022-07-06T02:34:27;10.45;;;6.28;;
35330;SDS011;21441;52.190;20.910;2022-07-06T02:36:54;7.03;;;5.95;;
35330;SDS011;21441;52.190;20.910;2022-07-06T02:39:21;7.60;;;6.50;;
35330;SDS011;21441;52.190;20.910;2022-07-06T02:41:48;8.48;;;6.20;;
35330;SDS011;21441;52.190;20.910;2022-07-06T02:44:15;8.18;;;6.60;;
35330;SDS011;21441;52.190;20.910;2022-07-06T02:46:43;10.90;;;6.57;;
35330;SDS011;21441;52.190;20.910;2022-07-06T02:49:10;7.53;;;6.45;;
35330;SDS011;21441;52.190;20.910;2022-07-06T02:51:37;6.68;;;5.88;;
35330;SDS011;21441;52.190;20.910;2022-07-06T02:54:04;6.80;;;6.18;;
35330;SDS011;21441;52.190;20.910;2022-07-06T02:56:30;6.72;;;6.03;;
35330;SDS011;21441;52.190;20.910;2022-07-06T02:58:57;7.63;;;6.05;;
35330;SDS011;21441;52.190;20.910;2022-07-06T03:01:24;7.20;;;5.90;;
35330;SDS011;21441;52.190;20.910;2022-07-06T03:03:53;8.93;;;6.72;;
35330;SDS011;21441;52.190;20.910;2022-07-06T03:06:20;7.30;;;6.60;;
35330;SDS011;21441;52.190;20.910;2022-07-06T03:08:47;7.70;;;6.90;;
35330;SDS011;21441;52.190;20.910;2022-07-06T03:11:13;7.38;;;6.68;;
35330;SDS011;21441;52.190;20.910;2022-07-06T03:13:40;7.43;;;6.68;;
35330;SDS011;21441;52.190;20.910;2022-07-06T03:16:07;7.38;;;6.72;;
35330;SDS011;21441;52.190;20.910;2022-07-06T03:18:34;7.38;;;6.55;;
35330;SDS011;21441;52.190;20.910;2022-07-06T03:21:02;7.82;;;6.80;;
35330;SDS011;21441;52.190;20.910;2022-07-06T03:23:30;9.10;;;5.97;;
35330;SDS011;21441;52.190;20.910;2022-07-06T03:25:57;6.90;;;6.20;;
35330;SDS011;21441;52.190;20.910;2022-07-06T03:28:24;9.15;;;6.30;;
35330;SDS011;21441;52.190;20.910;2022-07-06T03:30:51;6.35;;;5.75;;
35330;SDS011;21441;52.190;20.910;2022-07-06T03:33:18;6.63;;;5.90;;
35330;SDS011;21441;52.190;20.910;2022-07-06T03:35:45;6.72;;;6.13;;
35330;SDS011;21441;52.190;20.910;2022-07-06T03:38:13;6.93;;;6.28;;
35330;SDS011;21441;52.190;20.910;2022-07-06T03:40:40;7.03;;;5.88;;
35330;SDS011;21441;52.190;20.910;2022-07-06T03:43:07;7.55;;;6.13;;
35330;SDS011;21441;52.190;20.910;2022-07-06T03:45:34;5.78;;;5.28;;
35330;SDS011;21441;52.190;20.910;2022-07-06T03:48:00;6.90;;;6.13;;
35330;SDS011;21441;52.190;20.910;2022-07-06T03:50:27;7.20;;;6.45;;
35330;SDS011;21441;52.190;20.910;2022-07-06T03:52:54;8.68;;;7.20;;
35330;SDS011;21441;52.190;20.910;2022-07-06T03:55:23;7.30;;;6.40;;
35330;SDS011;21441;52.190;20.910;2022-07-06T03:57:49;5.25;;;4.85;;
35330;SDS011;21441;52.190;20.910;2022-07-06T04:00:16;5.75;;;5.25;;
35330;SDS011;21441;52.190;20.910;2022-07-06T04:02:43;6.43;;;5.00;;
35330;SDS011;21441;52.190;20.910;2022-07-06T04:05:10;6.70;;;5.22;;
35330;SDS011;21441;52.190;20.910;2022-07-06T04:07:37;5.85;;;5.35;;
35330;SDS011;21441;52.190;20.910;2022-07-06T04:10:04;6.15;;;4.88;;
35330;SDS011;21441;52.190;20.910;2022-07-06T04:12:33;5.72;;;5.18;;
35330;SDS011;21441;52.190;20.910;2022-07-06T04:15:07;6.43;;;5.00;;
35330;SDS011;21441;52.190;20.910;2022-07-06T04:17:34;5.43;;;4.70;;
35330;SDS011;21441;52.190;20.910;2022-07-06T04:20:15;5.03;;;4.60;;
35330;SDS011;21441;52.190;20.910;2022-07-06T04:22:42;5.25;;;4.38;;
35330;SDS011;21441;52.190;20.910;2022-07-06T04:25:09;5.65;;;4.43;;
35330;SDS011;21441;52.190;20.910;2022-07-06T04:27:37;4.53;;;4.13;;
35330;SDS011;21441;52.190;20.910;2022-07-06T04:30:05;4.53;;;4.00;;
35330;SDS011;21441;52.190;20.910;2022-07-06T04:32:33;5.18;;;3.97;;
35330;SDS011;21441;52.190;20.910;2022-07-06T04:35:00;4.60;;;4.20;;
35330;SDS011;21441;52.190;20.910;2022-07-06T04:37:27;4.88;;;4.43;;
35330;SDS011;21441;52.190;20.910;2022-07-06T04:39:54;6.40;;;5.80;;
35330;SDS011;21441;52.190;20.910;2022-07-06T04:42:21;6.07;;;5.32;;
35330;SDS011;21441;52.190;20.910;2022-07-06T04:44:49;5.10;;;4.60;;
35330;SDS011;21441;52.190;20.910;2022-07-06T04:47:17;4.88;;;4.47;;
35330;SDS011;21441;52.190;20.910;2022-07-06T04:49:44;5.55;;;5.05;;
35330;SDS011;21441;52.190;20.910;2022-07-06T04:52:11;6.60;;;4.30;;
35330;SDS011;21441;52.190;20.910;2022-07-06T04:54:38;8.27;;;4.38;;
35330;SDS011;21441;52.190;20.910;2022-07-06T04:57:05;3.90;;;3.60;;
35330;SDS011;21441;52.190;20.910;2022-07-06T04:59:32;3.67;;;3.35;;
35330;SDS011;21441;52.190;20.910;2022-07-06T05:02:01;4.88;;;3.58;;
35330;SDS011;21441;52.190;20.910;2022-07-06T05:04:28;5.03;;;3.78;;
35330;SDS011;21441;52.190;20.910;2022-07-06T05:06:55;6.78;;;3.88;;
35330;SDS011;21441;52.190;20.910;2022-07-06T05:09:22;4.15;;;3.75;;
35330;SDS011;21441;52.190;20.910;2022-07-06T05:11:49;4.53;;;3.70;;
35330;SDS011;21441;52.190;20.910;2022-07-06T05:14:16;5.40;;;4.60;;
35330;SDS011;21441;52.190;20.910;2022-07-06T05:16:43;4.90;;;3.95;;
35330;SDS011;21441;52.190;20.910;2022-07-06T05:19:12;5.57;;;4.10;;
35330;SDS011;21441;52.190;20.910;2022-07-06T05:21:39;5.28;;;4.40;;
35330;SDS011;21441;52.190;20.910;2022-07-06T05:24:06;4.13;;;3.67;;
35330;SDS011;21441;52.190;20.910;2022-07-06T05:26:33;5.88;;;3.95;;
35330;SDS011;21441;52.190;20.910;2022-07-06T05:29:00;4.15;;;3.75;;
35330;SDS011;21441;52.190;20.910;2022-07-06T05:31:27;4.80;;;3.80;;
35330;SDS011;21441;52.190;20.910;2022-07-06T05:33:54;3.97;;;3.63;;
35330;SDS011;21441;52.190;20.910;2022-07-06T05:36:22;5.03;;;3.40;;
35330;SDS011;21441;52.190;20.910;2022-07-06T05:38:49;3.65;;;3.35;;
35330;SDS011;21441;52.190;20.910;2022-07-06T05:41:16;4.45;;;3.20;;
35330;SDS011;21441;52.190;20.910;2022-07-06T05:43:42;4.80;;;3.50;;
35330;SDS011;21441;52.190;20.910;2022-07-06T05:46:09;4.50;;;3.55;;
35330;SDS011;21441;52.190;20.910;2022-07-06T05:48:36;3.80;;;3.50;;
35330;SDS011;21441;52.190;20.910;2022-07-06T05:51:22;3.83;;;3.53;;
35330;SDS011;21441;52.190;20.910;2022-07-06T05:53:49;3.72;;;3.42;;
35330;SDS011;21441;52.190;20.910;2022-07-06T05:56:16;3.40;;;3.10;;
35330;SDS011;21441;52.190;20.910;2022-07-06T05:58:43;5.55;;;3.70;;
35330;SDS011;21441;52.190;20.910;2022-07-06T06:01:10;5.30;;;2.88;;
35330;SDS011;21441;52.190;20.910;2022-07-06T06:03:36;5.30;;;3.58;;
35330;SDS011;21441;52.190;20.910;2022-07-06T06:06:03;4.55;;;3.92;;
35330;SDS011;21441;52.190;20.910;2022-07-06T06:11:01;4.72;;;4.13;;
35330;SDS011;21441;52.190;20.910;2022-07-06T06:13:28;5.93;;;5.30;;
35330;SDS011;21441;52.190;20.910;2022-07-06T06:15:55;8.98;;;7.82;;
35330;SDS011;21441;52.190;20.910;2022-07-06T06:18:22;10.98;;;9.43;;
35330;SDS011;21441;52.190;20.910;2022-07-06T06:20:49;14.25;;;9.55;;
35330;SDS011;21441;52.190;20.910;2022-07-06T06:23:16;12.27;;;9.00;;
35330;SDS011;21441;52.190;20.910;2022-07-06T06:25:44;9.05;;;8.07;;
35330;SDS011;21441;52.190;20.910;2022-07-06T06:28:11;8.13;;;7.20;;
35330;SDS011;21441;52.190;20.910;2022-07-06T06:30:38;7.20;;;6.50;;
35330;SDS011;21441;52.190;20.910;2022-07-06T06:33:06;8.55;;;6.07;;
35330;SDS011;21441;52.190;20.910;2022-07-06T06:35:36;8.85;;;5.55;;
35330;SDS011;21441;52.190;20.910;2022-07-06T06:38:04;7.03;;;4.82;;
35330;SDS011;21441;52.190;20.910;2022-07-06T06:40:31;8.77;;;5.38;;
35330;SDS011;21441;52.190;20.910;2022-07-06T06:42:59;6.00;;;5.20;;
35330;SDS011;21441;52.190;20.910;2022-07-06T06:45:26;7.82;;;5.90;;
35330;SDS011;21441;52.190;20.910;2022-07-06T06:47:53;5.30;;;4.80;;
35330;SDS011;21441;52.190;20.910;2022-07-06T06:50:20;7.07;;;5.35;;
35330;SDS011;21441;52.190;20.910;2022-07-06T06:52:48;8.18;;;5.45;;
35330;SDS011;21441;52.190;20.910;2022-07-06T06:55:15;9.25;;;5.90;;
35330;SDS011;21441;52.190;20.910;2022-07-06T06:57:42;6.40;;;5.00;;
35330;SDS011;21441;52.190;20.910;2022-07-06T07:00:12;8.38;;;5.10;;
35330;SDS011;21441;52.190;20.910;2022-07-06T07:02:39;7.40;;;5.45;;
35330;SDS011;21441;52.190;20.910;2022-07-06T07:05:06;6.97;;;5.80;;
35330;SDS011;21441;52.190;20.910;2022-07-06T07:07:33;6.85;;;5.30;;
35330;SDS011;21441;52.190;20.910;2022-07-06T07:10:02;7.10;;;5.28;;
35330;SDS011;21441;52.190;20.910;2022-07-06T07:12:29;6.85;;;4.75;;
35330;SDS011;21441;52.190;20.910;2022-07-06T07:14:56;7.10;;;4.97;;
35330;SDS011;21441;52.190;20.910;2022-07-06T07:17:24;5.03;;;4.05;;
35330;SDS011;21441;52.190;20.910;2022-07-06T07:19:51;4.25;;;3.83;;
35330;SDS011;21441;52.190;20.910;2022-07-06T07:22:18;4.22;;;3.78;;
35330;SDS011;21441;52.190;20.910;2022-07-06T07:24:45;11.60;;;4.50;;
35330;SDS011;21441;52.190;20.910;2022-07-06T07:27:12;6.95;;;4.63;;
35330;SDS011;21441;52.190;20.910;2022-07-06T07:29:39;7.22;;;5.10;;
35330;SDS011;21441;52.190;20.910;2022-07-06T07:32:06;9.18;;;5.18;;
35330;SDS011;21441;52.190;20.910;2022-07-06T07:34:34;7.18;;;5.15;;
35330;SDS011;21441;52.190;20.910;2022-07-06T07:37:01;5.40;;;4.72;;
35330;SDS011;21441;52.190;20.910;2022-07-06T07:39:28;6.22;;;5.40;;
35330;SDS011;21441;52.190;20.910;2022-07-06T07:41:55;8.55;;;5.47;;
35330;SDS011;21441;52.190;20.910;2022-07-06T07:44:22;7.85;;;4.60;;
35330;SDS011;21441;52.190;20.910;2022-07-06T07:46:50;7.05;;;5.53;;
35330;SDS011;21441;52.190;20.910;2022-07-06T07:49:17;9.65;;;5.25;;
35330;SDS011;21441;52.190;20.910;2022-07-06T07:51:48;7.25;;;4.07;;
35330;SDS011;21441;52.190;20.910;2022-07-06T07:54:15;4.45;;;4.03;;
35330;SDS011;21441;52.190;20.910;2022-07-06T07:56:42;4.13;;;3.75;;
35330;SDS011;21441;52.190;20.910;2022-07-06T07:59:09;6.85;;;3.78;;
35330;SDS011;21441;52.190;20.910;2022-07-06T08:01:36;11.38;;;3.80;;
35330;SDS011;21441;52.190;20.910;2022-07-06T08:04:03;6.25;;;3.22;;
35330;SDS011;21441;52.190;20.910;2022-07-06T08:06:30;4.70;;;3.20;;
35330;SDS011;21441;52.190;20.910;2022-07-06T08:08:59;3.45;;;2.60;;
35330;SDS011;21441;52.190;20.910;2022-07-06T08:11:26;3.88;;;2.47;;
35330;SDS011;21441;52.190;20.910;2022-07-06T08:13:53;4.15;;;2.90;;
35330;SDS011;21441;52.190;20.910;2022-07-06T08:16:19;3.83;;;2.33;;
35330;SDS011;21441;52.190;20.910;2022-07-06T08:18:46;3.88;;;2.03;;
35330;SDS011;21441;52.190;20.910;2022-07-06T08:21:13;2.17;;;1.98;;
35330;SDS011;21441;52.190;20.910;2022-07-06T08:23:40;4.43;;;1.70;;
35330;SDS011;21441;52.190;20.910;2022-07-06T08:26:08;4.30;;;1.73;;
35330;SDS011;21441;52.190;20.910;2022-07-06T08:28:35;1.80;;;1.70;;
35330;SDS011;21441;52.190;20.910;2022-07-06T08:31:02;2.83;;;1.92;;
35330;SDS011;21441;52.190;20.910;2022-07-06T08:33:29;3.33;;;2.35;;
35330;SDS011;21441;52.190;20.910;2022-07-06T08:35:56;3.00;;;1.80;;
35330;SDS011;21441;52.190;20.910;2022-07-06T08:38:23;4.10;;;1.65;;
35330;SDS011;21441;52.190;20.910;2022-07-06T08:40:50;3.83;;;1.60;;
35330;SDS011;21441;52.190;20.910;2022-07-06T08:43:19;3.05;;;1.58;;
35330;SDS011;21441;52.190;20.910;2022-07-06T08:45:46;2.40;;;1.10;;
35330;SDS011;21441;52.190;20.910;2022-07-06T08:48:14;3.10;;;2.15;;
35330;SDS011;21441;52.190;20.910;2022-07-06T08:50:42;2.67;;;1.20;;
35330;SDS011;21441;52.190;20.910;2022-07-06T08:53:09;4.97;;;1.67;;
35330;SDS011;21441;52.190;20.910;2022-07-06T08:55:36;4.97;;;1.52;;
35330;SDS011;21441;52.190;20.910;2022-07-06T08:58:04;2.75;;;1.73;;
35330;SDS011;21441;52.190;20.910;2022-07-06T09:00:33;2.58;;;1.63;;
35330;SDS011;21441;52.190;20.910;2022-07-06T09:03:00;1.67;;;1.17;;
35330;SDS011;21441;52.190;20.910;2022-07-06T09:05:27;2.90;;;1.10;;
35330;SDS011;21441;52.190;20.910;2022-07-06T09:07:55;2.35;;;1.30;;
35330;SDS011;21441;52.190;20.910;2022-07-06T09:10:23;5.45;;;1.90;;
35330;SDS011;21441;52.190;20.910;2022-07-06T09:12:50;8.70;;;1.48;;
35330;SDS011;21441;52.190;20.910;2022-07-06T09:15:17;2.38;;;1.20;;
35330;SDS011;21441;52.190;20.910;2022-07-06T09:17:45;3.75;;;1.15;;
35330;SDS011;21441;52.190;20.910;2022-07-06T09:20:12;5.72;;;1.20;;
35330;SDS011;21441;52.190;20.910;2022-07-06T09:22:40;3.45;;;1.15;;
35330;SDS011;21441;52.190;20.910;2022-07-06T09:25:08;1.85;;;1.00;;
35330;SDS011;21441;52.190;20.910;2022-07-06T09:27:37;3.38;;;0.80;;
35330;SDS011;21441;52.190;20.910;2022-07-06T09:30:04;3.92;;;1.27;;
35330;SDS011;21441;52.190;20.910;2022-07-06T09:32:37;2.30;;;1.00;;
35330;SDS011;21441;52.190;20.910;2022-07-06T09:35:07;2.67;;;1.17;;
35330;SDS011;21441;52.190;20.910;2022-07-06T09:37:34;2.58;;;1.00;;
35330;SDS011;21441;52.190;20.910;2022-07-06T09:40:02;2.00;;;1.10;;
35330;SDS011;21441;52.190;20.910;2022-07-06T09:42:43;3.13;;;1.00;;
35330;SDS011;21441;52.190;20.910;2022-07-06T09:45:11;2.13;;;0.88;;
35330;SDS011;21441;52.190;20.910;2022-07-06T09:47:38;2.33;;;0.80;;
35330;SDS011;21441;52.190;20.910;2022-07-06T09:50:09;2.35;;;0.90;;
35330;SDS011;21441;52.190;20.910;2022-07-06T09:52:36;2.42;;;1.00;;
35330;SDS011;21441;52.190;20.910;2022-07-06T09:55:05;2.50;;;0.90;;
35330;SDS011;21441;52.190;20.910;2022-07-06T09:57:51;1.40;;;0.93;;
35330;SDS011;21441;52.190;20.910;2022-07-06T10:00:22;1.60;;;0.82;;
35330;SDS011;21441;52.190;20.910;2022-07-06T10:02:49;1.45;;;0.70;;
35330;SDS011;21441;52.190;20.910;2022-07-06T10:05:25;1.58;;;0.77;;
35330;SDS011;21441;52.190;20.910;2022-07-06T10:08:01;2.47;;;0.70;;
35330;SDS011;21441;52.190;20.910;2022-07-06T10:10:31;2.58;;;0.60;;
35330;SDS011;21441;52.190;20.910;2022-07-06T10:12:59;3.47;;;0.73;;
35330;SDS011;21441;52.190;20.910;2022-07-06T10:15:27;1.80;;;0.68;;
35330;SDS011;21441;52.190;20.910;2022-07-06T10:17:57;2.70;;;1.95;;
35330;SDS011;21441;52.190;20.910;2022-07-06T10:20:27;1.30;;;0.60;;
35330;SDS011;21441;52.190;20.910;2022-07-06T10:22:56;1.70;;;1.25;;
35330;SDS011;21441;52.190;20.910;2022-07-06T10:25:25;2.22;;;0.63;;
35330;SDS011;21441;52.190;20.910;2022-07-06T10:27:52;2.17;;;0.73;;
35330;SDS011;21441;52.190;20.910;2022-07-06T10:30:19;1.92;;;0.80;;
35330;SDS011;21441;52.190;20.910;2022-07-06T10:32:48;2.10;;;0.60;;
35330;SDS011;21441;52.190;20.910;2022-07-06T10:35:17;2.30;;;0.70;;
35330;SDS011;21441;52.190;20.910;2022-07-06T10:38:02;1.10;;;0.77;;
35330;SDS011;21441;52.190;20.910;2022-07-06T10:40:33;1.98;;;0.88;;
35330;SDS011;21441;52.190;20.910;2022-07-06T10:43:19;2.40;;;0.60;;
35330;SDS011;21441;52.190;20.910;2022-07-06T10:45:49;2.53;;;0.70;;
35330;SDS011;21441;52.190;20.910;2022-07-06T10:48:18;1.02;;;0.50;;
35330;SDS011;21441;52.190;20.910;2022-07-06T10:50:46;1.40;;;1.15;;
35330;SDS011;21441;52.190;20.910;2022-07-06T10:53:17;2.65;;;0.68;;
35330;SDS011;21441;52.190;20.910;2022-07-06T10:55:47;1.02;;;0.65;;
35330;SDS011;21441;52.190;20.910;2022-07-06T11:01:02;1.05;;;0.70;;
35330;SDS011;21441;52.190;20.910;2022-07-06T11:03:35;1.52;;;0.70;;
35330;SDS011;21441;52.190;20.910;2022-07-06T11:06:08;1.77;;;0.70;;
35330;SDS011;21441;52.190;20.910;2022-07-06T11:11:37;1.92;;;0.60;;
35330;SDS011;21441;52.190;20.910;2022-07-06T11:14:07;1.55;;;0.65;;
35330;SDS011;21441;52.190;20.910;2022-07-06T11:16:36;1.50;;;0.90;;
35330;SDS011;21441;52.190;20.910;2022-07-06T11:19:05;2.30;;;0.80;;
35330;SDS011;21441;52.190;20.910;2022-07-06T11:21:36;3.15;;;0.80;;
35330;SDS011;21441;52.190;20.910;2022-07-06T11:24:25;2.33;;;0.85;;
35330;SDS011;21441;52.190;20.910;2022-07-06T11:26:54;2.33;;;0.93;;
35330;SDS011;21441;52.190;20.910;2022-07-06T11:29:22;0.98;;;0.75;;
35330;SDS011;21441;52.190;20.910;2022-07-06T11:31:51;2.97;;;1.80;;
35330;SDS011;21441;52.190;20.910;2022-07-06T11:34:20;3.70;;;1.13;;
35330;SDS011;21441;52.190;20.910;2022-07-06T11:36:48;9.07;;;2.47;;
35330;SDS011;21441;52.190;20.910;2022-07-06T11:39:20;3.00;;;0.80;;
35330;SDS011;21441;52.190;20.910;2022-07-06T11:41:49;2.10;;;0.70;;
35330;SDS011;21441;52.190;20.910;2022-07-06T11:44:15;1.40;;;0.63;;
35330;SDS011;21441;52.190;20.910;2022-07-06T11:46:42;1.95;;;1.40;;
35330;SDS011;21441;52.190;20.910;2022-07-06T11:49:09;1.83;;;0.80;;
35330;SDS011;21441;52.190;20.910;2022-07-06T11:51:37;4.28;;;1.13;;
35330;SDS011;21441;52.190;20.910;2022-07-06T11:54:08;1.30;;;0.80;;
35330;SDS011;21441;52.190;20.910;2022-07-06T11:56:36;1.08;;;0.68;;
35330;SDS011;21441;52.190;20.910;2022-07-06T11:59:04;2.17;;;0.93;;
35330;SDS011;21441;52.190;20.910;2022-07-06T12:01:32;1.57;;;0.80;;
35330;SDS011;21441;52.190;20.910;2022-07-06T12:04:00;3.15;;;0.98;;
35330;SDS011;21441;52.190;20.910;2022-07-06T12:06:29;2.15;;;0.70;;
35330;SDS011;21441;52.190;20.910;2022-07-06T12:08:57;1.27;;;0.80;;
35330;SDS011;21441;52.190;20.910;2022-07-06T12:11:26;2.85;;;0.95;;
35330;SDS011;21441;52.190;20.910;2022-07-06T12:13:54;3.58;;;1.13;;
35330;SDS011;21441;52.190;20.910;2022-07-06T12:16:30;1.75;;;0.85;;
35330;SDS011;21441;52.190;20.910;2022-07-06T12:18:59;2.92;;;2.08;;
35330;SDS011;21441;52.190;20.910;2022-07-06T12:21:28;2.60;;;1.17;;
35330;SDS011;21441;52.190;20.910;2022-07-06T12:23:55;1.50;;;0.82;;
35330;SDS011;21441;52.190;20.910;2022-07-06T12:26:23;1.90;;;0.80;;
35330;SDS011;21441;52.190;20.910;2022-07-06T12:28:59;2.90;;;1.00;;
35330;SDS011;21441;52.190;20.910;2022-07-06T12:31:32;1.10;;;0.60;;
35330;SDS011;21441;52.190;20.910;2022-07-06T12:34:00;2.70;;;0.70;;
35330;SDS011;21441;52.190;20.910;2022-07-06T12:36:28;2.90;;;0.73;;
35330;SDS011;21441;52.190;20.910;2022-07-06T12:38:55;1.80;;;0.70;;
35330;SDS011;21441;52.190;20.910;2022-07-06T12:41:26;3.15;;;0.52;;
35330;SDS011;21441;52.190;20.910;2022-07-06T12:44:04;1.85;;;0.63;;
35330;SDS011;21441;52.190;20.910;2022-07-06T12:46:35;3.00;;;0.77;;
35330;SDS011;21441;52.190;20.910;2022-07-06T12:49:04;0.50;;;0.50;;
35330;SDS011;21441;52.190;20.910;2022-07-06T12:51:48;3.75;;;1.10;;
35330;SDS011;21441;52.190;20.910;2022-07-06T12:54:27;4.00;;;1.02;;
35330;SDS011;21441;52.190;20.910;2022-07-06T12:56:59;2.47;;;0.93;;
35330;SDS011;21441;52.190;20.910;2022-07-06T12:59:31;2.25;;;0.98;;
35330;SDS011;21441;52.190;20.910;2022-07-06T13:02:01;3.25;;;1.23;;
35330;SDS011;21441;52.190;20.910;2022-07-06T13:04:28;2.28;;;0.98;;
35330;SDS011;21441;52.190;20.910;2022-07-06T13:06:57;3.28;;;1.20;;
35330;SDS011;21441;52.190;20.910;2022-07-06T13:09:24;2.45;;;0.90;;
35330;SDS011;21441;52.190;20.910;2022-07-06T13:11:51;3.30;;;0.70;;
35330;SDS011;21441;52.190;20.910;2022-07-06T13:14:18;2.05;;;0.90;;
35330;SDS011;21441;52.190;20.910;2022-07-06T13:16:45;1.02;;;0.70;;
35330;SDS011;21441;52.190;20.910;2022-07-06T13:19:14;2.72;;;1.60;;
35330;SDS011;21441;52.190;20.910;2022-07-06T13:21:41;1.80;;;0.85;;
35330;SDS011;21441;52.190;20.910;2022-07-06T13:24:10;5.53;;;1.30;;
35330;SDS011;21441;52.190;20.910;2022-07-06T13:26:37;2.88;;;0.90;;
35330;SDS011;21441;52.190;20.910;2022-07-06T13:29:03;3.40;;;1.23;;
35330;SDS011;21441;52.190;20.910;2022-07-06T13:31:31;3.47;;;1.00;;
35330;SDS011;21441;52.190;20.910;2022-07-06T13:33:58;1.95;;;0.90;;
35330;SDS011;21441;52.190;20.910;2022-07-06T13:36:26;2.78;;;0.73;;
35330;SDS011;21441;52.190;20.910;2022-07-06T13:38:53;2.88;;;0.98;;
35330;SDS011;21441;52.190;20.910;2022-07-06T13:41:20;2.75;;;0.77;;
35330;SDS011;21441;52.190;20.910;2022-07-06T13:43:47;5.47;;;1.25;;
35330;SDS011;21441;52.190;20.910;2022-07-06T13:46:14;3.90;;;1.00;;
35330;SDS011;21441;52.190;20.910;2022-07-06T13:48:42;1.35;;;0.80;;
35330;SDS011;21441;52.190;20.910;2022-07-06T13:51:10;2.85;;;0.82;;
35330;SDS011;21441;52.190;20.910;2022-07-06T13:53:38;1.15;;;0.70;;
35330;SDS011;21441;52.190;20.910;2022-07-06T13:56:05;2.65;;;0.85;;
35330;SDS011;21441;52.190;20.910;2022-07-06T13:58:33;3.75;;;1.13;;
35330;SDS011;21441;52.190;20.910;2022-07-06T14:01:00;3.85;;;0.90;;
35330;SDS011;21441;52.190;20.910;2022-07-06T14:03:27;2.28;;;1.40;;
35330;SDS011;21441;52.190;20.910;2022-07-06T14:05:55;2.78;;;1.48;;
35330;SDS011;21441;52.190;20.910;2022-07-06T14:08:24;5.57;;;1.58;;
35330;SDS011;21441;52.190;20.910;2022-07-06T14:10:53;1.67;;;0.80;;
35330;SDS011;21441;52.190;20.910;2022-07-06T14:13:20;2.80;;;0.98;;
35330;SDS011;21441;52.190;20.910;2022-07-06T14:15:47;4.53;;;1.17;;
35330;SDS011;21441;52.190;20.910;2022-07-06T14:18:15;3.90;;;1.05;;
35330;SDS011;21441;52.190;20.910;2022-07-06T14:20:42;4.38;;;0.90;;
35330;SDS011;21441;52.190;20.910;2022-07-06T14:23:10;1.77;;;0.90;;
35330;SDS011;21441;52.190;20.910;2022-07-06T14:26:18;2.58;;;1.15;;
35330;SDS011;21441;52.190;20.910;2022-07-06T14:28:45;2.33;;;1.05;;
35330;SDS011;21441;52.190;20.910;2022-07-06T14:31:12;1.23;;;0.75;;
35330;SDS011;21441;52.190;20.910;2022-07-06T14:33:39;3.15;;;1.13;;
35330;SDS011;21441;52.190;20.910;2022-07-06T14:36:06;4.13;;;1.10;;
35330;SDS011;21441;52.190;20.910;2022-07-06T14:38:33;3.63;;;1.30;;
35330;SDS011;21441;52.190;20.910;2022-07-06T14:41:00;3.80;;;1.13;;
35330;SDS011;21441;52.190;20.910;2022-07-06T14:43:33;3.17;;;0.90;;
35330;SDS011;21441;52.190;20.910;2022-07-06T14:46:01;2.60;;;1.20;;
35330;SDS011;21441;52.190;20.910;2022-07-06T14:48:28;3.70;;;1.35;;